Wetterdaten: aktuell Mittwoch, 20.10.2021 09:30
Datum Zeit Temp. A. Feuchte A. Luftdruck Regen Wind Richtung Richtung Taupunkt Windchill Windben
20.10.2021 09:30 14,6 C 45 % 1013,9 hPa 0,0 l/m 2,8 km/h (1 Bft) S-SW 207 2,8 C 14,6 C 19,3 km/h (3 Bft)
20.10.2021 09:25 14,6 C 44 % 1014,0 hPa 0,0 l/m 3,2 km/h (1 Bft) S-SW 211 2,5 C 14,6 C 14,5 km/h (3 Bft)
20.10.2021 09:20 14,4 C 44 % 1014,1 hPa 0,0 l/m 3,4 km/h (1 Bft) S 175 2,3 C 14,4 C 25,7 km/h (4 Bft)
20.10.2021 09:15 14,3 C 45 % 1014,1 hPa 0,0 l/m 3,4 km/h (1 Bft) S-SW 194 2,5 C 14,3 C 14,5 km/h (3 Bft)
20.10.2021 09:10 14,2 C 45 % 1014,2 hPa 0,0 l/m 2,6 km/h (1 Bft) S-SW 208 2,4 C 14,2 C 17,7 km/h (3 Bft)
20.10.2021 09:05 14,2 C 45 % 1014,2 hPa 0,0 l/m 3,9 km/h (1 Bft) W 263 2,4 C 14,2 C 25,7 km/h (4 Bft)
20.10.2021 09:00 14,2 C 45 % 1014,2 hPa 0,0 l/m 3,4 km/h (1 Bft) S 188 2,4 C 14,2 C 24,1 km/h (4 Bft)
20.10.2021 08:55 14,2 C 45 % 1014,3 hPa 0,0 l/m 4,7 km/h (1 Bft) S 190 2,4 C 14,2 C 24,1 km/h (4 Bft)
20.10.2021 08:50 14,2 C 48 % 1014,2 hPa 0,0 l/m 2,2 km/h (1 Bft) S 187 3,4 C 14,2 C 16,1 km/h (3 Bft)
20.10.2021 08:45 14,1 C 48 % 1014,4 hPa 0,0 l/m 4,5 km/h (1 Bft) SW 215 3,3 C 14,1 C 20,9 km/h (4 Bft)
20.10.2021 08:40 14,0 C 48 % 1014,3 hPa 0,0 l/m 2,6 km/h (1 Bft) S-SO 167 3,2 C 14,0 C 20,9 km/h (4 Bft)
20.10.2021 08:35 13,8 C 49 % 1014,4 hPa 0,0 l/m 4,7 km/h (1 Bft) W-SW 250 3,3 C 13,8 C 22,5 km/h (4 Bft)
20.10.2021 08:30 13,6 C 49 % 1014,3 hPa 0,0 l/m 3,0 km/h (1 Bft) S 186 3,1 C 13,6 C 19,3 km/h (3 Bft)
20.10.2021 08:25 13,4 C 49 % 1014,5 hPa 0,0 l/m 2,6 km/h (1 Bft) S 190 2,9 C 13,4 C 19,3 km/h (3 Bft)
20.10.2021 08:20 13,3 C 48 % 1014,5 hPa 0,0 l/m 3,4 km/h (1 Bft) S-SO 167 2,5 C 13,3 C 12,9 km/h (3 Bft)
20.10.2021 08:15 13,2 C 49 % 1014,5 hPa 0,0 l/m 2,9 km/h (1 Bft) W-SW 246 2,7 C 13,2 C 19,3 km/h (3 Bft)
20.10.2021 08:10 13,1 C 49 % 1014,5 hPa 0,0 l/m 3,3 km/h (1 Bft) S-SW 201 2,6 C 13,1 C 17,7 km/h (3 Bft)
20.10.2021 08:05 13,1 C 50 % 1014,5 hPa 0,0 l/m 2,9 km/h (1 Bft) S-SW 194 2,9 C 13,1 C 17,7 km/h (3 Bft)
20.10.2021 08:00 13,1 C 50 % 1014,6 hPa 0,0 l/m 2,4 km/h (1 Bft) W-SW 239 2,9 C 13,1 C 14,5 km/h (3 Bft)
20.10.2021 07:55 13,2 C 50 % 1014,6 hPa 0,0 l/m 6,6 km/h (2 Bft) W-SW 242 3,0 C 13,1 C 25,7 km/h (4 Bft)
20.10.2021 07:50 13,2 C 49 % 1014,6 hPa 0,0 l/m 6,8 km/h (2 Bft) S 169 2,7 C 13,0 C 22,5 km/h (4 Bft)
20.10.2021 07:45 13,2 C 50 % 1014,5 hPa 0,0 l/m 4,7 km/h (1 Bft) S-SO 163 3,0 C 13,2 C 19,3 km/h (3 Bft)
20.10.2021 07:40 13,2 C 50 % 1014,5 hPa 0,0 l/m 4,9 km/h (1 Bft) S-SW 195 3,0 C 13,2 C 20,9 km/h (4 Bft)
20.10.2021 07:35 13,3 C 50 % 1014,7 hPa 0,0 l/m 3,4 km/h (1 Bft) W 262 3,1 C 13,3 C 22,5 km/h (4 Bft)
20.10.2021 07:30 13,3 C 49 % 1014,7 hPa 0,0 l/m 4,1 km/h (1 Bft) S 179 2,8 C 13,3 C 19,3 km/h (3 Bft)
20.10.2021 07:25 13,3 C 48 % 1014,7 hPa 0,0 l/m 4,5 km/h (1 Bft) S 189 2,5 C 13,3 C 25,7 km/h (4 Bft)
20.10.2021 07:20 13,4 C 48 % 1014,7 hPa 0,0 l/m 7,0 km/h (2 Bft) S-SO 165 2,6 C 13,0 C 33,8 km/h (5 Bft)
20.10.2021 07:15 13,6 C 47 % 1014,7 hPa 0,0 l/m 8,2 km/h (2 Bft) S-SW 193 2,5 C 12,5 C 24,1 km/h (4 Bft)
20.10.2021 07:10 13,7 C 47 % 1014,8 hPa 0,0 l/m 3,5 km/h (1 Bft) S 180 2,6 C 13,7 C 20,9 km/h (4 Bft)
20.10.2021 07:05 13,7 C 50 % 1014,7 hPa 0,0 l/m 3,7 km/h (1 Bft) S-SO 155 3,5 C 13,7 C 17,7 km/h (3 Bft)
20.10.2021 07:00 13,7 C 52 % 1014,8 hPa 0,0 l/m 4,8 km/h (1 Bft) S 173 4,0 C 13,7 C 14,5 km/h (3 Bft)
20.10.2021 06:55 13,6 C 55 % 1015,0 hPa 0,0 l/m 3,4 km/h (1 Bft) S 190 4,7 C 13,6 C 14,5 km/h (3 Bft)
20.10.2021 06:50 13,6 C 56 % 1015,0 hPa 0,0 l/m 5,1 km/h (1 Bft) S 180 5,0 C 13,6 C 16,1 km/h (3 Bft)
20.10.2021 06:45 13,7 C 58 % 1015,1 hPa 0,0 l/m 0,0 km/h (0 Bft) W-SW 244 5,6 C 13,7 C 1,6 km/h (1 Bft)
20.10.2021 06:40 13,8 C 58 % 1015,1 hPa 0,0 l/m 3,4 km/h (1 Bft) S-SW 194 5,7 C 13,8 C 14,5 km/h (3 Bft)
20.10.2021 06:35 13,9 C 58 % 1015,2 hPa 0,0 l/m 2,4 km/h (1 Bft) S-SW 200 5,8 C 13,9 C 20,9 km/h (4 Bft)
20.10.2021 06:30 14,2 C 57 % 1015,3 hPa 0,0 l/m 1,1 km/h (1 Bft) W-SW 238 5,8 C 14,2 C 11,3 km/h (2 Bft)
20.10.2021 06:25 14,6 C 57 % 1015,5 hPa 0,0 l/m 3,6 km/h (1 Bft) S 169 6,2 C 14,6 C 19,3 km/h (3 Bft)
20.10.2021 06:20 14,8 C 58 % 1015,4 hPa 0,0 l/m 3,4 km/h (1 Bft) S 171 6,6 C 14,8 C 16,1 km/h (3 Bft)
20.10.2021 06:15 14,7 C 59 % 1015,6 hPa 0,0 l/m 3,2 km/h (1 Bft) S-SW 209 6,8 C 14,7 C 17,7 km/h (3 Bft)
20.10.2021 06:10 14,7 C 59 % 1015,5 hPa 0,0 l/m 4,0 km/h (1 Bft) S-SW 194 6,8 C 14,7 C 22,5 km/h (4 Bft)
20.10.2021 06:05 14,6 C 59 % 1015,5 hPa 0,0 l/m 4,4 km/h (1 Bft) SW 227 6,7 C 14,6 C 17,7 km/h (3 Bft)
20.10.2021 06:00 14,7 C 58 % 1015,6 hPa 0,0 l/m 8,5 km/h (2 Bft) W-SW 251 6,5 C 13,5 C 22,5 km/h (4 Bft)
20.10.2021 05:55 14,7 C 58 % 1015,6 hPa 0,0 l/m 6,2 km/h (2 Bft) S-SW 213 6,5 C 14,7 C 37,0 km/h (5 Bft)
20.10.2021 05:50 14,7 C 59 % 1015,8 hPa 0,0 l/m 5,5 km/h (1 Bft) S-SW 204 6,8 C 14,7 C 30,6 km/h (5 Bft)
20.10.2021 05:45 14,7 C 59 % 1015,9 hPa 0,0 l/m 8,3 km/h (2 Bft) W-SW 256 6,8 C 13,6 C 32,2 km/h (5 Bft)
20.10.2021 05:40 14,7 C 59 % 1015,9 hPa 0,0 l/m 6,0 km/h (2 Bft) S-SW 200 6,8 C 14,7 C 27,4 km/h (4 Bft)
20.10.2021 05:35 14,6 C 59 % 1015,9 hPa 0,0 l/m 8,3 km/h (2 Bft) S 187 6,7 C 13,5 C 30,6 km/h (5 Bft)
20.10.2021 05:30 14,6 C 60 % 1015,9 hPa 0,0 l/m 5,6 km/h (1 Bft) S 189 6,9 C 14,6 C 35,4 km/h (5 Bft)
20.10.2021 05:25 14,6 C 61 % 1016,0 hPa 0,0 l/m 7,9 km/h (2 Bft) S 186 7,2 C 13,7 C 32,2 km/h (5 Bft)
20.10.2021 05:20 14,5 C 61 % 1016,1 hPa 0,0 l/m 11,2 km/h (2 Bft) S-SW 211 7,1 C 12,0 C 37,0 km/h (5 Bft)
20.10.2021 05:15 14,3 C 63 % 1016,2 hPa 0,0 l/m 4,2 km/h (1 Bft) S-SO 159 7,4 C 14,3 C 22,5 km/h (4 Bft)
20.10.2021 05:10 14,2 C 63 % 1016,2 hPa 0,0 l/m 6,5 km/h (2 Bft) S-SW 207 7,3 C 14,2 C 27,4 km/h (4 Bft)
20.10.2021 05:05 14,1 C 64 % 1016,3 hPa 0,0 l/m 1,7 km/h (1 Bft) SW 218 7,4 C 14,1 C 19,3 km/h (3 Bft)
20.10.2021 05:00 13,9 C 64 % 1016,4 hPa 0,0 l/m 4,1 km/h (1 Bft) S-SO 150 7,2 C 13,9 C 30,6 km/h (5 Bft)
20.10.2021 04:55 13,8 C 64 % 1016,4 hPa 0,0 l/m 4,0 km/h (1 Bft) S 186 7,1 C 13,8 C 25,7 km/h (4 Bft)
20.10.2021 04:50 13,8 C 65 % 1016,4 hPa 0,0 l/m 5,2 km/h (1 Bft) SW 230 7,3 C 13,8 C 25,7 km/h (4 Bft)
20.10.2021 04:45 13,7 C 65 % 1016,4 hPa 0,0 l/m 5,0 km/h (1 Bft) SW 227 7,2 C 13,7 C 25,7 km/h (4 Bft)
20.10.2021 04:40 13,6 C 66 % 1016,5 hPa 0,0 l/m 8,4 km/h (2 Bft) S-SW 192 7,4 C 12,4 C 24,1 km/h (4 Bft)
20.10.2021 04:35 13,4 C 67 % 1016,5 hPa 0,0 l/m 6,3 km/h (2 Bft) SW 236 7,4 C 13,4 C 22,5 km/h (4 Bft)
20.10.2021 04:30 13,3 C 68 % 1016,5 hPa 0,0 l/m 5,4 km/h (1 Bft) S-SO 150 7,5 C 13,3 C 27,4 km/h (4 Bft)
20.10.2021 04:25 13,3 C 68 % 1016,6 hPa 0,0 l/m 1,5 km/h (1 Bft) SW 230 7,5 C 13,3 C 17,7 km/h (3 Bft)
20.10.2021 04:20 13,4 C 68 % 1016,6 hPa 0,0 l/m 6,5 km/h (2 Bft) S-SW 194 7,6 C 13,4 C 27,4 km/h (4 Bft)
20.10.2021 04:15 13,4 C 69 % 1016,7 hPa 0,0 l/m 5,4 km/h (1 Bft) S-SO 161 7,8 C 13,4 C 19,3 km/h (3 Bft)
20.10.2021 04:10 13,5 C 69 % 1016,8 hPa 0,0 l/m 7,3 km/h (2 Bft) S 186 7,9 C 12,9 C 24,1 km/h (4 Bft)
20.10.2021 04:05 13,6 C 69 % 1016,8 hPa 0,0 l/m 2,3 km/h (1 Bft) S-SW 197 8,0 C 13,6 C 22,5 km/h (4 Bft)
20.10.2021 04:00 13,6 C 69 % 1016,9 hPa 0,0 l/m 4,8 km/h (1 Bft) SW 221 8,0 C 13,6 C 24,1 km/h (4 Bft)
20.10.2021 03:55 13,8 C 69 % 1017,0 hPa 0,0 l/m 6,6 km/h (2 Bft) W 279 8,2 C 13,7 C 24,1 km/h (4 Bft)
20.10.2021 03:50 13,9 C 69 % 1017,0 hPa 0,0 l/m 4,4 km/h (1 Bft) SW 225 8,3 C 13,9 C 29,0 km/h (5 Bft)
20.10.2021 03:45 14,1 C 69 % 1017,1 hPa 0,0 l/m 5,7 km/h (1 Bft) SW 218 8,5 C 14,1 C 25,7 km/h (4 Bft)
20.10.2021 03:40 14,0 C 69 % 1017,1 hPa 0,0 l/m 5,3 km/h (1 Bft) W-SW 246 8,4 C 14,0 C 24,1 km/h (4 Bft)
20.10.2021 03:35 13,9 C 70 % 1017,4 hPa 0,0 l/m 4,8 km/h (1 Bft) S 191 8,5 C 13,9 C 33,8 km/h (5 Bft)
20.10.2021 03:30 13,6 C 71 % 1017,3 hPa 0,0 l/m 4,8 km/h (1 Bft) SW 217 8,4 C 13,6 C 24,1 km/h (4 Bft)
20.10.2021 03:25 13,3 C 73 % 1017,4 hPa 0,0 l/m 4,6 km/h (1 Bft) SW 215 8,6 C 13,3 C 32,2 km/h (5 Bft)
20.10.2021 03:20 13,1 C 74 % 1017,5 hPa 0,0 l/m 5,8 km/h (2 Bft) W-SW 237 8,6 C 13,1 C 33,8 km/h (5 Bft)
20.10.2021 03:15 12,7 C 75 % 1017,6 hPa 0,0 l/m 3,3 km/h (1 Bft) SW 217 8,4 C 12,7 C 20,9 km/h (4 Bft)
20.10.2021 03:10 12,6 C 75 % 1017,6 hPa 0,0 l/m 3,1 km/h (1 Bft) S 178 8,3 C 12,6 C 20,9 km/h (4 Bft)
20.10.2021 03:05 12,5 C 76 % 1017,8 hPa 0,0 l/m 2,9 km/h (1 Bft) S-SW 196 8,4 C 12,5 C 32,2 km/h (5 Bft)
20.10.2021 03:00 12,4 C 76 % 1017,8 hPa 0,0 l/m 1,4 km/h (1 Bft) W-SW 237 8,3 C 12,4 C 16,1 km/h (3 Bft)
20.10.2021 02:55 12,6 C 76 % 1018,0 hPa 0,0 l/m 5,2 km/h (1 Bft) S-SW 211 8,5 C 12,6 C 19,3 km/h (3 Bft)
20.10.2021 02:50 12,7 C 76 % 1018,3 hPa 0,0 l/m 2,4 km/h (1 Bft) SW 236 8,6 C 12,7 C 14,5 km/h (3 Bft)
20.10.2021 02:45 12,8 C 76 % 1018,3 hPa 0,0 l/m 4,5 km/h (1 Bft) S-SO 161 8,7 C 12,8 C 19,3 km/h (3 Bft)
20.10.2021 02:40 12,9 C 76 % 1018,5 hPa 0,0 l/m 3,3 km/h (1 Bft) S-SW 199 8,8 C 12,9 C 24,1 km/h (4 Bft)
20.10.2021 02:35 12,9 C 77 % 1018,6 hPa 0,0 l/m 0,9 km/h (0 Bft) SW 219 9,0 C 12,9 C 12,9 km/h (3 Bft)
20.10.2021 02:30 13,1 C 77 % 1018,7 hPa 0,0 l/m 2,7 km/h (1 Bft) SW 227 9,2 C 13,1 C 22,5 km/h (4 Bft)
20.10.2021 02:25 13,1 C 77 % 1018,6 hPa 0,0 l/m 3,2 km/h (1 Bft) S 186 9,2 C 13,1 C 22,5 km/h (4 Bft)
20.10.2021 02:20 13,0 C 78 % 1018,6 hPa 0,0 l/m 5,6 km/h (1 Bft) S-SW 213 9,3 C 13,0 C 35,4 km/h (5 Bft)
20.10.2021 02:15 12,9 C 79 % 1018,7 hPa 0,0 l/m 1,9 km/h (1 Bft) S-SW 205 9,3 C 12,9 C 19,3 km/h (3 Bft)
20.10.2021 02:10 12,9 C 80 % 1018,5 hPa 0,0 l/m 8,5 km/h (2 Bft) S-SW 198 9,5 C 11,6 C 29,0 km/h (5 Bft)
20.10.2021 02:05 12,9 C 80 % 1018,6 hPa 0,0 l/m 4,4 km/h (1 Bft) SW 215 9,5 C 12,9 C 20,9 km/h (4 Bft)
20.10.2021 02:00 13,1 C 80 % 1018,5 hPa 0,0 l/m 7,6 km/h (2 Bft) W-NW 291 9,7 C 12,3 C 22,5 km/h (4 Bft)
20.10.2021 01:55 13,2 C 80 % 1018,6 hPa 0,0 l/m 10,4 km/h (2 Bft) SW 222 9,8 C 10,9 C 22,5 km/h (4 Bft)
20.10.2021 01:50 13,2 C 79 % 1018,7 hPa 0,0 l/m 7,4 km/h (2 Bft) W-SW 257 9,6 C 12,6 C 22,5 km/h (4 Bft)
20.10.2021 01:45 13,3 C 79 % 1018,7 hPa 0,0 l/m 8,9 km/h (2 Bft) S 171 9,7 C 11,8 C 32,2 km/h (5 Bft)
20.10.2021 01:40 13,3 C 79 % 1018,4 hPa 0,0 l/m 9,1 km/h (2 Bft) S-SW 197 9,7 C 11,7 C 22,5 km/h (4 Bft)
20.10.2021 01:35 13,3 C 79 % 1018,6 hPa 0,0 l/m 11,7 km/h (2 Bft) S 184 9,7 C 10,4 C 25,7 km/h (4 Bft)
20.10.2021 01:30 13,4 C 79 % 1018,5 hPa 0,0 l/m 6,8 km/h (2 Bft) SW 220 9,8 C 13,2 C 19,3 km/h (3 Bft)
20.10.2021 01:25 13,4 C 80 % 1018,5 hPa 0,0 l/m 7,2 km/h (2 Bft) W 264 10,0 C 12,9 C 25,7 km/h (4 Bft)
20.10.2021 01:20 13,4 C 80 % 1018,5 hPa 0,0 l/m 8,9 km/h (2 Bft) N 360 10,0 C 11,9 C 24,1 km/h (4 Bft)
20.10.2021 01:15 13,3 C 79 % 1018,6 hPa 0,0 l/m 7,9 km/h (2 Bft) S-SW 195 9,7 C 12,4 C 22,5 km/h (4 Bft)
_ Min-Zeit 17:30 09:20 09:30 - 06:45 - - 09:20 18:25 06:45
Minimum _ 8,9 C 44 % 1013,9 hPa - 0,0 km/h (0 Bft) - - 2,3 C 3,3 C 1,6 km/h (1 Bft)
_ Max-Zeit 06:20 20:10 10:05 10:00 18:25 - - 00:10 06:20 14:55
Maximum _ 14,8 C 95 % 1024,1 hPa 0,0 l/m 17,4 km/h
S-SO (3 Bft)
- - 11,6 C 14,8 C 41,8 km/h
S (6 Bft)
Durchschnitt _ 12,2 C 74 % 1019,8 hPa #0,0 l/m 6,1 km/h (2 Bft) S - 7,3 C 11,4 C 21,3 km/h (4 Bft)